Time;durP1;ratioP1;P1;durP2;ratioP2;P2;SDS_P1;SDS_P2;PMS_P1;PMS_P2;Temp;Humidity;BMP_temperature;BMP_pressure;BME280_temperature;BME280_humidity;BME280_pressure;Samples;Min_cycle;Max_cycle;Signal;HPM_P1;HPM_P2
2021/09/07 00:01:08;;;;;;;;;8.00;8.00;;;;;20.76;51.69;101857.41;5012385;28;46274;-68
2021/09/07 00:03:33;;;;;;;;;25.33;16.33;;;;;20.73;51.53;101865.69;5012780;28;45412;-66
2021/09/07 00:05:59;;;;;;;;;13.00;8.67;;;;;20.71;51.79;101857.00;5011677;28;45693;-65
2021/09/07 00:08:24;;;;;;;;;8.00;8.00;;;;;20.68;52.29;101857.28;5014319;28;45834;-66
2021/09/07 00:10:50;;;;;;;;;13.00;12.00;;;;;20.67;51.86;101858.28;5013560;28;45975;-65
2021/09/07 00:13:15;;;;;;;;;10.00;10.00;;;;;20.64;52.01;101858.56;5014956;28;45356;-65
2021/09/07 00:15:40;;;;;;;;;12.00;9.00;;;;;20.62;52.05;101853.38;5016062;28;45288;-66
2021/09/07 00:18:06;;;;;;;;;8.33;7.00;;;;;20.59;52.38;101854.53;5017047;28;45329;-67
2021/09/07 00:20:31;;;;;;;;;10.00;8.33;;;;;20.54;52.42;101854.16;5016868;28;46760;-67
2021/09/07 00:22:57;;;;;;;;;10.00;8.00;;;;;20.51;52.95;101858.94;5016681;28;46149;-67
2021/09/07 00:25:22;;;;;;;;;9.00;6.00;;;;;20.49;52.66;101853.78;5014856;28;45443;-66
2021/09/07 00:27:49;;;;;;;;;7.67;6.67;;;;;20.45;52.60;101863.06;5015406;28;45627;-67
2021/09/07 00:30:14;;;;;;;;;6.67;6.33;;;;;20.43;52.99;101859.72;5015536;28;46220;-67
2021/09/07 00:32:40;;;;;;;;;9.00;8.67;;;;;20.38;53.29;101856.66;5015967;28;45353;-68
2021/09/07 00:35:07;;;;;;;;;9.33;8.00;;;;;20.35;53.25;101857.78;5016030;28;45823;-65
2021/09/07 00:37:33;;;;;;;;;17.67;14.67;;;;;20.30;53.17;101854.75;5015118;28;45491;-66
2021/09/07 00:39:58;;;;;;;;;11.33;10.00;;;;;20.32;52.92;101849.25;5016169;28;46112;-67
2021/09/07 00:42:23;;;;;;;;;12.33;8.33;;;;;20.30;53.67;101853.91;5013810;28;45461;-66
2021/09/07 00:44:49;;;;;;;;;10.33;8.00;;;;;20.27;53.28;101853.22;5015856;28;45390;-65
2021/09/07 00:47:14;;;;;;;;;11.33;9.33;;;;;20.23;53.31;101849.16;5017010;28;45507;-66
2021/09/07 00:49:39;;;;;;;;;10.00;8.67;;;;;20.20;53.40;101849.47;5015084;28;45475;-67
2021/09/07 00:52:05;;;;;;;;;11.00;8.00;;;;;20.18;53.60;101843.44;5015473;28;45472;-66
2021/09/07 00:54:33;;;;;;;;;10.67;9.33;;;;;20.18;53.33;101840.78;5015606;28;45358;-65
2021/09/07 00:57:02;;;;;;;;;10.33;9.00;;;;;20.14;53.76;101833.25;5015485;28;45419;-68
2021/09/07 00:59:32;;;;;;;;;13.33;9.33;;;;;20.14;53.54;101839.41;5016945;28;45494;-67
2021/09/07 01:01:57;;;;;;;;;9.33;8.33;;;;;20.10;53.62;101832.69;5016793;28;45424;-65
2021/09/07 01:04:23;;;;;;;;;8.33;8.00;;;;;20.10;53.81;101841.53;5015371;28;45701;-68
2021/09/07 01:06:48;;;;;;;;;11.67;7.00;;;;;20.10;53.75;101838.03;5015138;28;45329;-66
2021/09/07 01:09:14;;;;;;;;;11.33;9.00;;;;;20.08;54.13;101824.84;5016222;28;46100;-64
2021/09/07 01:11:40;;;;;;;;;10.00;9.33;;;;;20.08;54.17;101826.66;5015911;28;45313;-68
2021/09/07 01:14:06;;;;;;;;;8.67;7.67;;;;;20.08;54.10;101824.00;5015589;28;45393;-68
2021/09/07 01:16:31;;;;;;;;;13.00;9.00;;;;;20.07;54.07;101811.63;5015413;28;45320;-66
2021/09/07 01:18:59;;;;;;;;;10.33;10.33;;;;;20.07;53.78;101812.50;5012299;28;45342;-71
2021/09/07 01:21:25;;;;;;;;;8.67;7.00;;;;;20.05;54.37;101818.97;5014126;28;45293;-68
2021/09/07 01:23:50;;;;;;;;;10.67;9.33;;;;;20.01;54.31;101812.25;5014853;28;45394;-68
2021/09/07 01:26:18;;;;;;;;;11.00;9.33;;;;;19.99;54.42;101804.38;5017072;28;45659;-70
2021/09/07 01:28:45;;;;;;;;;9.67;8.00;;;;;19.98;54.68;101807.22;5014749;28;45447;-71
2021/09/07 01:31:11;;;;;;;;;9.67;7.00;;;;;19.94;54.54;101804.84;5012308;28;45496;-72
2021/09/07 01:33:37;;;;;;;;;8.00;7.00;;;;;19.90;54.82;101800.81;5015078;28;45576;-68
2021/09/07 01:36:03;;;;;;;;;10.67;8.67;;;;;19.88;54.89;101808.13;5019829;28;45556;-69
2021/09/07 01:38:30;;;;;;;;;9.67;9.00;;;;;19.85;54.56;101803.09;5017429;28;45514;-69
2021/09/07 01:40:56;;;;;;;;;11.00;9.67;;;;;19.79;54.71;101804.47;5015680;28;45432;-68
2021/09/07 01:43:22;;;;;;;;;9.67;8.33;;;;;19.77;55.26;101794.94;5014738;28;45494;-65
2021/09/07 01:45:48;;;;;;;;;10.33;9.00;;;;;19.74;55.00;101796.06;5014566;28;45387;-71
2021/09/07 01:48:18;;;;;;;;;8.67;7.67;;;;;19.72;55.71;101799.88;5014535;28;46281;-68
2021/09/07 01:50:44;;;;;;;;;12.33;9.67;;;;;19.67;55.64;101797.69;5014800;28;45515;-68
2021/09/07 01:53:10;;;;;;;;;11.00;11.00;;;;;19.63;55.72;101791.78;5015463;28;45667;-70
2021/09/07 01:55:36;;;;;;;;;13.33;10.33;;;;;19.60;55.68;101800.09;5012660;28;45381;-69
2021/09/07 01:58:01;;;;;;;;;9.00;8.00;;;;;19.58;55.96;101790.56;5014311;28;45518;-69
2021/09/07 02:00:27;;;;;;;;;10.67;10.33;;;;;19.56;56.03;101796.03;5014945;28;45447;-68
2021/09/07 02:02:52;;;;;;;;;9.33;9.33;;;;;19.55;55.89;101796.19;5014668;28;45400;-68
2021/09/07 02:05:17;;;;;;;;;13.00;10.00;;;;;19.55;55.80;101802.38;5016315;28;45424;-67
2021/09/07 02:07:43;;;;;;;;;12.67;9.33;;;;;19.54;55.87;101805.16;5013880;28;46170;-67
2021/09/07 02:10:09;;;;;;;;;10.00;9.00;;;;;19.52;55.96;101797.31;5013898;28;45435;-69
2021/09/07 02:12:35;;;;;;;;;11.00;8.67;;;;;19.53;55.85;101804.31;5014223;28;45494;-70
2021/09/07 02:15:00;;;;;;;;;8.00;7.67;;;;;19.51;56.12;101803.63;5017128;28;45471;-68
2021/09/07 02:17:25;;;;;;;;;10.33;9.00;;;;;19.49;56.19;101799.44;5015040;28;49476;-68
2021/09/07 02:19:52;;;;;;;;;9.67;9.67;;;;;19.44;56.37;101795.38;5014118;28;45281;-68
2021/09/07 02:22:18;;;;;;;;;13.00;8.00;;;;;19.40;56.67;101793.16;5014052;28;45211;-66
2021/09/07 02:24:43;;;;;;;;;14.33;11.67;;;;;19.37;56.62;101798.78;5014354;28;45560;-66
2021/09/07 02:27:08;;;;;;;;;9.67;9.00;;;;;19.33;56.92;101797.38;5014188;28;45884;-67
2021/09/07 02:29:34;;;;;;;;;12.00;11.00;;;;;19.27;56.84;101794.31;5018962;28;45317;-69
2021/09/07 02:31:59;;;;;;;;;11.33;10.00;;;;;19.22;56.81;101788.59;5013403;28;45523;-67
2021/09/07 02:34:25;;;;;;;;;10.00;8.67;;;;;19.20;57.04;101787.91;5011007;28;45352;-67
2021/09/07 02:36:50;;;;;;;;;3.67;3.67;;;;;19.19;57.18;101786.22;5009049;28;45944;-68
2021/09/07 02:39:15;;;;;;;;;11.00;10.33;;;;;19.16;57.13;101781.16;5011415;28;45563;-68
2021/09/07 02:41:41;;;;;;;;;10.67;8.00;;;;;19.12;57.17;101774.47;5013681;28;45563;-70
2021/09/07 02:44:06;;;;;;;;;14.00;12.00;;;;;19.11;57.21;101776.28;5013942;28;45347;-69
2021/09/07 02:46:31;;;;;;;;;11.67;8.67;;;;;19.13;57.26;101773.47;5011477;28;46801;-69
2021/09/07 02:48:57;;;;;;;;;12.67;9.67;;;;;19.12;57.47;101763.81;5011165;28;45381;-69
2021/09/07 02:51:22;;;;;;;;;14.00;10.67;;;;;19.13;57.32;101765.50;5011664;28;45412;-68
2021/09/07 02:53:48;;;;;;;;;14.67;11.33;;;;;19.12;57.64;101763.81;5011978;28;45340;-68
2021/09/07 02:56:14;;;;;;;;;14.33;12.33;;;;;19.10;57.35;101765.78;5029752;28;46098;-69
2021/09/07 02:58:39;;;;;;;;;10.67;8.67;;;;;19.10;57.32;101765.78;5010843;28;45578;-67
2021/09/07 03:01:05;;;;;;;;;16.33;11.33;;;;;19.08;57.57;101767.75;5011283;28;45353;-69
2021/09/07 03:03:30;;;;;;;;;13.33;10.67;;;;;19.05;57.73;101758.22;5010402;28;45404;-68
2021/09/07 03:05:58;;;;;;;;;13.33;12.00;;;;;19.03;57.91;101759.34;5011217;28;46072;-68
2021/09/07 03:08:23;;;;;;;;;13.67;11.00;;;;;19.00;57.53;101754.31;5014748;28;45270;-69
2021/09/07 03:10:48;;;;;;;;;13.33;10.00;;;;;18.98;58.12;101751.81;5011528;28;45769;-69
2021/09/07 03:13:14;;;;;;;;;13.67;11.00;;;;;18.95;57.98;101742.28;5010686;28;45317;-69
2021/09/07 03:15:41;;;;;;;;;10.33;10.33;;;;;18.94;58.24;101742.41;5010474;28;45473;-68
2021/09/07 03:18:06;;;;;;;;;14.00;11.00;;;;;18.93;58.47;101743.44;5012016;28;45451;-69
2021/09/07 03:20:31;;;;;;;;;13.67;9.67;;;;;18.92;58.13;101745.22;5013143;28;47996;-69
2021/09/07 03:22:57;;;;;;;;;15.00;11.50;;;;;18.91;58.51;101756.84;5012299;28;45475;-66
2021/09/07 03:25:22;;;;;;;;;13.00;11.67;;;;;18.90;58.45;101746.34;5006525;28;45397;-69
2021/09/07 03:27:47;;;;;;;;;15.00;13.33;;;;;18.87;58.61;101752.78;5005983;28;45407;-69
2021/09/07 03:30:13;;;;;;;;;13.33;12.67;;;;;18.87;58.49;101752.78;5012315;28;45570;-69
2021/09/07 03:32:39;;;;;;;;;16.33;12.33;;;;;18.85;58.50;101749.44;5011870;28;46217;-69
2021/09/07 03:35:06;;;;;;;;;16.33;13.00;;;;;18.85;58.58;101745.91;5013947;28;46842;-70
2021/09/07 03:37:31;;;;;;;;;15.33;11.33;;;;;18.82;58.69;101740.88;5012056;28;45608;-68
2021/09/07 03:39:56;;;;;;;;;16.33;12.67;;;;;18.81;58.76;101745.34;5013174;28;45484;-67
2021/09/07 03:42:22;;;;;;;;;14.33;13.00;;;;;18.79;59.01;101742.84;5013023;28;45596;-65
2021/09/07 03:44:47;;;;;;;;;15.00;12.67;;;;;18.78;58.86;101735.84;5012128;28;46130;-64
2021/09/07 03:47:12;;;;;;;;;16.00;14.33;;;;;18.76;58.87;101736.97;5014077;28;45359;-68
2021/09/07 03:49:40;;;;;;;;;10.00;9.00;;;;;18.71;58.87;101739.22;5015355;28;45741;-76
2021/09/07 03:52:05;;;;;;;;;15.33;12.33;;;;;18.68;59.56;101734.19;5018981;28;45763;-70
2021/09/07 03:54:31;;;;;;;;;15.33;14.00;;;;;18.66;59.56;101728.19;5012027;28;46022;-65
2021/09/07 03:56:56;;;;;;;;;11.00;11.00;;;;;18.63;59.36;101727.47;5009895;28;45547;-64
2021/09/07 03:59:21;;;;;;;;;15.33;13.67;;;;;18.61;59.32;101726.75;5015438;28;45380;-63
2021/09/07 04:01:47;;;;;;;;;15.33;14.67;;;;;18.57;59.32;101717.41;5021685;28;45420;-65
2021/09/07 04:04:12;;;;;;;;;10.67;10.00;;;;;18.57;59.20;101728.03;5017315;28;47616;-65
2021/09/07 04:06:38;;;;;;;;;16.00;12.67;;;;;18.54;59.17;101728.34;5011959;28;45519;-65
2021/09/07 04:09:03;;;;;;;;;17.00;12.67;;;;;18.50;59.42;101721.63;5012782;28;45518;-62
2021/09/07 04:11:28;;;;;;;;;13.00;12.00;;;;;18.50;59.54;101736.72;5010405;28;45473;-65
2021/09/07 04:13:54;;;;;;;;;14.67;12.67;;;;;18.48;59.72;101731.56;5005063;28;46253;-67
2021/09/07 04:16:19;;;;;;;;;12.67;12.00;;;;;18.50;59.64;101736.72;5007921;28;45291;-65
2021/09/07 04:18:44;;;;;;;;;14.00;14.00;;;;;18.48;59.66;101734.22;5012866;28;45467;-65
2021/09/07 04:21:12;;;;;;;;;13.00;8.00;;;;;18.40;59.79;101728.78;5014041;28;45296;-67
2021/09/07 04:23:37;;;;;;;;;16.00;11.67;;;;;18.39;60.17;101740.38;5015419;28;46351;-68
2021/09/07 04:26:03;;;;;;;;;13.33;12.33;;;;;18.37;60.05;101747.66;5016882;28;45366;-65
2021/09/07 04:28:28;;;;;;;;;17.67;16.67;;;;;18.33;60.15;101746.25;5012256;28;45449;-65
2021/09/07 04:30:53;;;;;;;;;19.67;14.67;;;;;18.28;60.08;101749.31;5013145;28;45477;-66
2021/09/07 04:33:19;;;;;;;;;16.00;13.00;;;;;18.24;60.38;101756.75;5014556;28;46044;-66
2021/09/07 04:35:44;;;;;;;;;13.33;12.33;;;;;18.19;60.52;101764.31;5011426;28;45415;-65
2021/09/07 04:38:09;;;;;;;;;16.00;14.00;;;;;18.15;60.84;101760.25;5013731;28;45344;-67
2021/09/07 04:40:36;;;;;;;;;16.00;15.67;;;;;18.14;60.92;101769.22;5011194;28;45353;-66
2021/09/07 04:43:01;;;;;;;;;17.00;15.00;;;;;18.09;60.85;101769.59;5004114;28;46169;-66
2021/09/07 04:45:27;;;;;;;;;18.00;14.67;;;;;18.08;61.14;101775.06;5020848;28;45467;-65
2021/09/07 04:47:52;;;;;;;;;6.33;5.33;;;;;18.06;61.08;101775.22;5010521;28;45538;-65
2021/09/07 04:50:17;;;;;;;;;16.00;15.33;;;;;18.03;61.44;101769.31;5012649;28;45388;-65
2021/09/07 04:52:43;;;;;;;;;17.00;15.33;;;;;18.04;61.21;101771.00;5010170;28;45511;-64
2021/09/07 04:55:08;;;;;;;;;20.00;14.00;;;;;18.01;61.28;101771.28;5011359;28;45570;-66
2021/09/07 04:57:34;;;;;;;;;15.67;13.33;;;;;17.97;61.28;101765.41;5011385;28;45555;-66
2021/09/07 04:59:59;;;;;;;;;16.67;14.67;;;;;17.94;61.49;101761.22;5014088;28;45351;-67
2021/09/07 05:02:24;;;;;;;;;19.67;15.67;;;;;17.91;61.55;101769.41;5015863;28;45478;-66
2021/09/07 05:04:49;;;;;;;;;18.33;16.00;;;;;17.92;61.66;101760.47;5016015;28;45849;-66
2021/09/07 05:07:15;;;;;;;;;18.00;13.00;;;;;17.91;61.83;101769.41;5015315;28;45385;-66
2021/09/07 05:09:40;;;;;;;;;14.67;14.33;;;;;17.88;61.72;101772.34;5008329;28;45411;-67
2021/09/07 05:12:06;;;;;;;;;16.33;15.33;;;;;17.88;61.80;101769.69;5012197;28;49923;-67
2021/09/07 05:14:32;;;;;;;;;27.67;18.33;;;;;17.88;62.01;101779.47;5015217;28;45416;-65
2021/09/07 05:16:57;;;;;;;;;15.00;15.00;;;;;17.88;62.00;101775.00;5015130;28;45399;-65
2021/09/07 05:19:22;;;;;;;;;20.67;15.00;;;;;17.90;62.14;101775.69;5011523;28;45488;-66
2021/09/07 05:21:48;;;;;;;;;14.33;12.33;;;;;17.94;61.88;101786.94;5014618;28;46241;-68
2021/09/07 05:24:13;;;;;;;;;21.33;16.00;;;;;17.94;61.74;101790.44;5014005;28;45792;-66
2021/09/07 05:26:38;;;;;;;;;19.00;16.33;;;;;17.92;61.79;101780.91;5014297;28;45333;-65
2021/09/07 05:29:04;;;;;;;;;17.00;16.33;;;;;17.90;61.71;101778.34;5012031;28;45334;-66
2021/09/07 05:31:29;;;;;;;;;16.67;14.67;;;;;17.91;61.88;101777.38;5011673;28;46539;-66
2021/09/07 05:33:54;;;;;;;;;18.33;15.67;;;;;17.92;61.83;101778.25;5013595;28;45520;-67
2021/09/07 05:36:20;;;;;;;;;25.33;18.00;;;;;17.91;62.16;101773.91;5021377;28;45673;-66
2021/09/07 05:38:45;;;;;;;;;19.00;16.67;;;;;17.93;62.03;101783.44;5013778;28;45608;-65
2021/09/07 05:41:11;;;;;;;;;16.00;14.67;;;;;17.93;62.05;101786.09;5014133;28;45640;-65
2021/09/07 05:43:36;;;;;;;;;15.00;15.00;;;;;17.93;61.93;101778.13;5012702;28;45426;-66
2021/09/07 05:46:02;;;;;;;;;22.00;16.00;;;;;17.93;61.97;101788.75;5011931;28;45559;-64
2021/09/07 05:48:27;;;;;;;;;19.67;14.67;;;;;17.95;61.96;101785.97;5012606;28;45583;-66
2021/09/07 05:50:53;;;;;;;;;15.67;14.00;;;;;17.96;62.03;101783.16;5011471;28;45930;-66
2021/09/07 05:53:19;;;;;;;;;18.67;17.33;;;;;18.00;62.00;101786.38;5009938;28;45503;-65
2021/09/07 05:55:44;;;;;;;;;19.67;16.00;;;;;17.98;62.07;101786.53;5013309;28;45340;-68
2021/09/07 05:58:09;;;;;;;;;16.67;14.00;;;;;18.03;62.05;101801.22;5013142;28;45251;-66
2021/09/07 06:00:35;;;;;;;;;18.67;18.00;;;;;18.03;62.14;101794.09;5013394;28;45431;-66
2021/09/07 06:03:04;;;;;;;;;15.33;13.67;;;;;18.06;62.18;101798.28;5013575;28;45317;-68
2021/09/07 06:05:29;;;;;;;;;22.33;17.33;;;;;18.08;62.04;101801.66;5014728;28;45286;-67
2021/09/07 06:07:55;;;;;;;;;18.67;17.00;;;;;18.09;62.21;101793.53;5014768;28;45354;-66
2021/09/07 06:10:21;;;;;;;;;17.00;17.00;;;;;18.10;62.27;101799.72;5013603;28;45373;-65
2021/09/07 06:12:46;;;;;;;;;17.33;15.67;;;;;18.12;62.25;101789.75;5013578;28;45903;-67
2021/09/07 06:15:12;;;;;;;;;19.33;12.67;;;;;18.13;62.27;101788.78;5013274;28;45529;-66
2021/09/07 06:17:37;;;;;;;;;19.67;16.00;;;;;18.14;62.19;101785.16;5013282;28;45462;-67
2021/09/07 06:20:04;;;;;;;;;21.00;16.33;;;;;18.18;62.30;101781.25;5013596;28;46236;-66
2021/09/07 06:22:29;;;;;;;;;14.33;12.67;;;;;18.19;62.18;101774.94;5012952;28;45502;-67
2021/09/07 06:24:55;;;;;;;;;14.33;14.33;;;;;18.22;62.43;101777.31;5010985;28;45484;-66
2021/09/07 06:27:21;;;;;;;;;23.00;16.67;;;;;18.29;62.38;101774.94;5011274;28;45819;-67
2021/09/07 06:29:46;;;;;;;;;16.67;16.67;;;;;18.25;62.17;101766.44;5009840;28;47323;-66
2021/09/07 06:32:16;;;;;;;;;16.33;16.33;;;;;18.37;61.91;101784.88;5011901;28;45764;-66
2021/09/07 06:34:41;;;;;;;;;17.00;12.67;;;;;18.43;61.96;101781.69;5010221;28;45424;-66
2021/09/07 06:37:07;;;;;;;;;19.67;18.00;;;;;18.46;62.00;101778.72;5010723;28;45550;-66
2021/09/07 06:39:33;;;;;;;;;19.33;16.67;;;;;18.42;61.63;101766.69;5012626;28;46895;-73
2021/09/07 06:41:58;;;;;;;;;18.33;16.00;;;;;18.55;61.47;101780.56;5011058;28;45586;-69
2021/09/07 06:44:24;;;;;;;;;17.67;16.67;;;;;18.69;61.58;101783.78;5007178;28;45526;-67
2021/09/07 06:46:49;;;;;;;;;22.33;14.33;;;;;18.80;61.26;101783.63;5014670;28;45586;-65
2021/09/07 06:49:14;;;;;;;;;15.00;14.33;;;;;18.90;61.11;101780.97;5014489;28;45496;-69
2021/09/07 06:51:40;;;;;;;;;17.00;14.67;;;;;19.01;60.85;101788.78;5015101;28;45424;-67
2021/09/07 06:54:05;;;;;;;;;20.67;15.67;;;;;19.12;60.46;101790.44;5015959;28;45544;-67
2021/09/07 06:56:30;;;;;;;;;16.67;16.00;;;;;19.22;59.85;101798.41;5014535;28;45494;-68
2021/09/07 06:58:56;;;;;;;;;18.33;15.33;;;;;19.28;59.86;101801.34;5015048;28;45331;-66
2021/09/07 07:01:24;;;;;;;;;13.33;10.00;;;;;19.36;59.37;101800.59;5014541;28;45392;-68
2021/09/07 07:03:50;;;;;;;;;19.33;17.33;;;;;19.44;59.58;101799.88;5014333;28;45505;-67
2021/09/07 07:06:15;;;;;;;;;22.00;15.33;;;;;19.50;59.37;101801.97;5014317;28;45612;-68
2021/09/07 07:08:40;;;;;;;;;23.00;18.33;;;;;19.57;59.42;101804.88;5013757;28;46018;-68
2021/09/07 07:11:06;;;;;;;;;19.67;15.33;;;;;19.64;59.06;101803.28;5014894;28;45222;-68
2021/09/07 07:13:31;;;;;;;;;17.00;14.50;;;;;19.73;58.88;101801.56;5014055;28;45710;-69
2021/09/07 07:15:56;;;;;;;;;17.00;14.67;;;;;19.81;59.09;101801.69;5013346;28;45468;-68
2021/09/07 07:18:22;;;;;;;;;14.33;12.33;;;;;19.92;58.99;101806.81;5012466;28;46229;-68
2021/09/07 07:20:47;;;;;;;;;14.33;14.00;;;;;20.02;58.71;101798.78;5012397;28;45440;-68
2021/09/07 07:23:12;;;;;;;;;17.67;16.33;;;;;20.13;58.31;101810.22;5015040;28;45433;-67
2021/09/07 07:25:38;;;;;;;;;20.00;17.33;;;;;20.25;58.10;101812.53;5012637;28;45792;-67
2021/09/07 07:28:03;;;;;;;;;18.00;15.67;;;;;20.36;57.61;101815.97;5013046;28;47182;-67
2021/09/07 07:30:29;;;;;;;;;20.00;18.67;;;;;20.46;57.74;101822.06;5012892;28;45416;-67
2021/09/07 07:32:55;;;;;;;;;17.00;15.00;;;;;20.57;57.31;101820.97;5011403;28;45453;-68
2021/09/07 07:35:21;;;;;;;;;21.67;16.33;;;;;20.66;57.21;101816.56;5015790;28;46001;-67
2021/09/07 07:37:47;;;;;;;;;16.00;14.67;;;;;20.74;57.37;101817.47;5013018;28;45587;-67
2021/09/07 07:40:12;;;;;;;;;17.67;14.00;;;;;20.82;56.53;101822.03;5013374;28;45375;-68
2021/09/07 07:42:38;;;;;;;;;25.33;19.00;;;;;20.92;56.48;101828.13;5012336;28;45580;-68
2021/09/07 07:45:04;;;;;;;;;17.33;17.00;;;;;21.00;56.26;101818.50;5013967;28;45569;-66
2021/09/07 07:47:29;;;;;;;;;14.00;13.33;;;;;21.07;56.32;101814.22;5018500;28;46211;-68
2021/09/07 07:49:55;;;;;;;;;19.33;14.00;;;;;21.17;55.86;101814.94;5013174;28;45349;-67
2021/09/07 07:52:20;;;;;;;;;16.67;14.67;;;;;21.23;55.72;101814.31;5012445;28;45297;-68
2021/09/07 07:54:49;;;;;;;;;16.00;15.00;;;;;21.32;55.18;101817.06;5012272;28;45520;-67
2021/09/07 07:57:15;;;;;;;;;14.00;12.33;;;;;21.37;54.89;101822.75;5012600;28;45445;-67
2021/09/07 07:59:41;;;;;;;;;19.33;13.00;;;;;21.45;55.00;101806.75;5010842;28;45470;-68
2021/09/07 08:02:06;;;;;;;;;15.33;13.67;;;;;21.51;54.36;101815.97;5014701;28;45581;-66
2021/09/07 08:04:31;;;;;;;;;16.67;14.00;;;;;21.52;54.34;101813.16;5012213;28;45520;-67
2021/09/07 08:06:57;;;;;;;;;16.00;11.67;;;;;21.59;53.93;101814.22;5012081;28;46898;-67
2021/09/07 08:09:22;;;;;;;;;16.67;12.00;;;;;21.65;54.43;101817.22;5012477;28;45558;-67
2021/09/07 08:11:47;;;;;;;;;20.00;17.33;;;;;21.68;54.07;101812.41;5013924;28;45441;-67
2021/09/07 08:14:13;;;;;;;;;14.00;13.00;;;;;21.74;53.49;101816.25;5017627;28;45288;-67
2021/09/07 08:16:38;;;;;;;;;16.00;13.67;;;;;21.80;53.34;101817.47;5013712;28;45642;-67
2021/09/07 08:19:04;;;;;;;;;13.67;13.67;;;;;21.88;53.47;101823.66;5012203;28;45322;-66
2021/09/07 08:21:29;;;;;;;;;16.67;14.67;;;;;21.95;53.17;101818.50;5011109;28;45756;-67
2021/09/07 08:23:56;;;;;;;;;15.00;12.33;;;;;22.01;52.50;101822.38;5011097;28;45464;-67
2021/09/07 08:26:21;;;;;;;;;17.00;16.00;;;;;22.05;52.65;101818.38;5013958;28;47225;-66
2021/09/07 08:28:46;;;;;;;;;13.00;12.25;;;;;22.11;52.34;101815.06;5011713;28;45415;-67
2021/09/07 08:31:12;;;;;;;;;15.00;12.00;;;;;22.18;52.08;101808.03;5012416;28;45412;-68
2021/09/07 08:33:37;;;;;;;;;11.00;11.00;;;;;22.24;51.05;101811.91;5015384;28;45405;-66
2021/09/07 08:36:03;;;;;;;;;13.75;13.25;;;;;22.31;50.85;101812.06;5015340;28;45486;-66
2021/09/07 08:38:30;;;;;;;;;14.00;12.25;;;;;22.37;51.76;101806.09;5017159;28;45542;-69
2021/09/07 08:40:58;;;;;;;;;20.67;15.00;;;;;22.46;51.45;101810.44;5017652;28;45504;-67
2021/09/07 08:43:25;;;;;;;;;15.67;15.67;;;;;22.53;51.48;101811.44;5017975;28;45568;-67
2021/09/07 08:45:55;;;;;;;;;15.75;13.25;;;;;22.60;51.26;101810.78;5017754;28;46346;-67
2021/09/07 08:48:22;;;;;;;;;12.50;12.25;;;;;22.77;51.04;101811.59;5019067;28;45282;-67
2021/09/07 08:50:48;;;;;;;;;14.00;12.75;;;;;22.99;49.85;101810.06;5018979;28;45279;-67
2021/09/07 08:53:14;;;;;;;;;13.25;12.00;;;;;23.30;49.08;101804.88;5018795;28;45229;-66
2021/09/07 08:55:40;;;;;;;;;14.25;13.00;;;;;23.60;47.97;101807.78;5015356;28;46368;-67
2021/09/07 08:58:05;;;;;;;;;11.75;11.00;;;;;23.91;47.34;101820.41;5015613;28;45460;-66
2021/09/07 09:00:34;;;;;;;;;16.00;13.25;;;;;24.18;47.30;101807.47;5014031;28;45463;-66
2021/09/07 09:03:08;;;;;;;;;17.25;14.00;;;;;24.47;46.31;101814.84;5014369;28;45477;-67
2021/09/07 09:05:33;;;;;;;;;13.50;11.75;;;;;24.68;45.29;101808.81;5015637;28;45475;-66
2021/09/07 09:07:58;;;;;;;;;11.50;10.25;;;;;24.84;44.05;101802.44;5016406;28;45471;-67
2021/09/07 09:10:25;;;;;;;;;11.00;9.00;;;;;24.98;45.38;101810.72;5015785;28;45820;-66
2021/09/07 09:13:10;;;;;;;;;20.25;17.25;;;;;25.06;44.56;101807.94;5015189;28;45468;-66
2021/09/07 09:15:36;;;;;;;;;21.75;12.00;;;;;25.11;45.80;101802.84;5014635;28;47109;-65
2021/09/07 09:18:09;;;;;;;;;16.75;12.25;;;;;25.16;45.05;101819.25;5015161;28;45373;-66
2021/09/07 09:20:36;;;;;;;;;13.50;12.00;;;;;25.16;44.79;101813.88;5016400;28;45630;-66
2021/09/07 09:23:02;;;;;;;;;13.50;11.50;;;;;25.16;44.22;101813.06;5016413;28;45682;-65
2021/09/07 09:25:36;;;;;;;;;12.00;11.00;;;;;25.17;43.92;101809.34;5014283;28;46203;-66
2021/09/07 09:28:06;;;;;;;;;10.00;10.00;;;;;25.14;40.78;101805.19;5014689;28;45296;-66
2021/09/07 09:30:45;;;;;;;;;12.50;11.25;;;;;25.12;41.58;101812.59;5015128;28;45365;-66
2021/09/07 09:33:13;;;;;;;;;12.00;9.00;;;;;25.12;41.85;101812.59;5014321;28;45461;-66
2021/09/07 09:35:49;;;;;;;;;11.75;11.50;;;;;25.11;39.33;101827.03;5014653;28;46026;-67
2021/09/07 09:38:15;;;;;;;;;12.00;9.50;;;;;25.11;41.01;101810.91;5016094;28;45397;-66
2021/09/07 09:40:41;;;;;;;;;9.50;9.50;;;;;25.09;39.80;101807.59;5013918;28;45451;-66
2021/09/07 09:43:27;;;;;;;;;9.00;8.25;;;;;25.12;38.45;101796.47;5014095;28;45527;-67
2021/09/07 09:45:54;;;;;;;;;8.75;8.00;;;;;25.12;38.37;101801.84;5014215;28;45527;-67
2021/09/07 09:48:22;;;;;;;;;9.50;8.25;;;;;25.15;38.77;101801.44;5012734;28;45501;-67
2021/09/07 09:50:50;;;;;;;;;8.50;7.50;;;;;25.17;38.55;101791.38;5015024;28;45238;-66
2021/09/07 09:53:18;;;;;;;;;7.75;6.00;;;;;25.21;38.25;101797.22;5016370;28;45275;-67
2021/09/07 09:55:44;;;;;;;;;12.00;11.50;;;;;25.25;39.06;101790.44;5013836;28;47204;-66
2021/09/07 09:58:10;;;;;;;;;14.75;9.75;;;;;25.31;39.19;101791.53;5014241;28;45540;-67
2021/09/07 10:00:37;;;;;;;;;10.00;9.75;;;;;25.36;39.21;101790.00;5014408;28;45478;-66
2021/09/07 10:03:09;;;;;;;;;13.00;11.75;;;;;25.41;38.57;101789.44;5014392;28;45329;-65
2021/09/07 10:05:35;;;;;;;;;12.25;10.00;;;;;25.49;39.36;101786.66;5015143;28;46019;-66
2021/09/07 10:08:00;;;;;;;;;9.75;9.75;;;;;25.56;38.90;101789.44;5015796;28;45444;-66
2021/09/07 10:10:26;;;;;;;;;10.25;7.50;;;;;25.64;38.76;101777.72;5021721;28;45567;-67
2021/09/07 10:12:56;;;;;;;;;13.00;10.25;;;;;25.70;38.91;101775.09;5014181;28;45278;-67
2021/09/07 10:15:36;;;;;;;;;10.25;8.50;;;;;25.78;38.01;101776.84;5014200;28;45439;-66
2021/09/07 10:18:27;;;;;;;;;5.00;4.75;;;;;25.88;38.30;101778.41;4997722;28;45235;-66
2021/09/07 10:21:02;;;;;;;;;10.50;9.25;;;;;25.92;38.38;101768.91;4998840;28;45518;-66
2021/09/07 10:24:05;;;;;;;;;10.75;10.50;;;;;26.00;38.12;101769.63;5013178;28;45476;-66
2021/09/07 10:26:36;;;;;;;;;9.75;9.25;;;;;26.07;37.86;101772.41;5012488;28;47172;-66
2021/09/07 10:29:02;;;;;;;;;11.00;10.50;;;;;26.14;38.63;101756.31;5014875;28;45384;-67
2021/09/07 10:31:41;;;;;;;;;11.75;10.25;;;;;26.20;38.19;101758.25;5012583;28;45550;-66
2021/09/07 10:34:07;;;;;;;;;11.00;10.00;;;;;26.25;37.41;101747.75;5014104;28;45630;-67
2021/09/07 10:36:36;;;;;;;;;10.00;8.00;;;;;26.29;37.96;101743.63;5014631;28;45302;-66
2021/09/07 10:39:07;;;;;;;;;11.00;10.00;;;;;26.32;37.18;101745.94;5014009;28;45465;-67
2021/09/07 10:41:32;;;;;;;;;12.75;10.00;;;;;26.36;37.23;101735.59;5014811;28;45419;-67
2021/09/07 10:44:23;;;;;;;;;9.50;9.50;;;;;26.41;37.60;101730.47;5014425;28;45406;-66
2021/09/07 10:46:55;;;;;;;;;7.00;7.00;;;;;26.44;36.52;101738.16;5010358;28;46214;-66
2021/09/07 10:49:48;;;;;;;;;8.00;7.50;;;;;26.44;36.99;101734.63;5013287;28;45518;-67
2021/09/07 10:52:17;;;;;;;;;10.50;10.50;;;;;26.46;37.21;101722.63;5009635;28;45471;-66
2021/09/07 10:55:15;;;;;;;;;10.50;10.50;;;;;26.44;36.71;101722.00;5012337;28;45979;-65
2021/09/07 10:57:41;;;;;;;;;10.50;9.00;;;;;26.44;37.19;101724.69;5012169;28;46359;-65
2021/09/07 11:00:27;;;;;;;;;8.50;8.00;;;;;26.47;37.05;101710.81;5012126;28;45308;-66
2021/09/07 11:02:55;;;;;;;;;13.00;10.75;;;;;26.50;37.13;101712.31;4998570;28;45417;-66
2021/09/07 11:05:28;;;;;;;;;14.25;12.00;;;;;26.55;37.77;101703.63;5031489;28;45486;-66
2021/09/07 11:08:12;;;;;;;;;11.50;9.50;;;;;26.58;36.86;101700.53;5013023;28;46434;-66
2021/09/07 11:10:51;;;;;;;;;12.00;9.25;;;;;26.63;37.08;101698.09;5013617;28;45613;-66